Metar z pełnej godziny Komunikat METAR ze strony awiacja.imgw.pl Metar G00 EPRZ METAR EPRZ 171300Z 10008KT 080V140 9999 SCT020CB 25/21 Q1018 RETS =